WIMMWIDD

Guest
Details From WIMM - Medan/Polonia
To WIDD - Batam Hang Nadim
Flight Number -
Tags generated
Created
Modified
Stats Distance 358 nm / 663 km
Max Altitude 33,000 ft / 10,058 m
Waypoints 5
Social Downloads 0
Likes 0
Share VATSIM

Download

Looking for another format? Having issues loading an existing format? Contact us
Advertisement - Login to hide

Notes

Basic altitude profile: - Ascent Rate: 2500ft/min - Ascent Speed: 180kts - Cruise Altitude: 33000ft - Cruise Speed: 170kts - Descent Rate: 1500ft/min - Descent Speed: 250kts

Route

WIMM AMVIL N563 SALAX A576 REKOP WIDD

ID Type Via Altitude Latitude Longitude Leg Dist Tot Dist Heading (true) Name
O WIMM APT - 0 ft / 0 m 3.55806˚ 98.67172˚ - 0 nm - Medan/Polonia
AMVIL FIX - 33,000 ft / 10,058 m 2.85500˚ 100.08833˚ 94 nm 94 nm 116° / 116° -
SALAX FIX N563 (AWY-HI) 33,000 ft / 10,058 m 2.20667˚ 101.56167˚ 96 nm 191 nm 114° / 114° -
REKOP FIX A576 (AWY-HI) 33,000 ft / 10,058 m 1.55167˚ 103.08917˚ 99 nm 291 nm 113° / 113° -
O WIDD APT - 0 ft / 0 m 1.12103˚ 104.11875˚ 67 nm 358 nm 113° / 113° Batam Hang Nadim

Altitude Profile

Advertisement - Login to hide

Weather


0- 5 10 15 20 25 30 35+ Temperature / ° C

Clouds and Precipitation
Forecast for 2017-12-18 12:00 UTC. Updated 4 minutes ago

Ground ~20,000 ft ~40,000 ft Winds

WIMM

Details ICAO WIMM (MES)
Name Medan/Polonia
Region Indonesia
Timezone Asia/Jakarta (UTC+7.0)
Stats Elevation 90 ft / 27 m (AMSL)
Location 3.558057° 98.671716°
Runways 1
Magnetic Variation 0.321° W

METAR

WIMM 181100Z 03009KT 9999 FEW018 29/25 Q1009

Decode

TAF

TAF TAF WIMM 172300Z 1800/1824 23005KT 4000 HZ FEW018 BECMG 1802/1804 33010KT 9000 FEW017CB SCT018 BECMG 1810/1812 VRB05KT 4500 HZ SCT018

Decode

Departure Runways

ID Width Length Bearing (true) Bearing (mag) Surface Threshold Offset Overrun Length
05 148 ft / 45 m 9,531 ft / 2,905 m 46.55° 46.87° Asphalt 910 ft / 277 m 197 ft / 60 m
23 148 ft / 45 m 9,531 ft / 2,905 m 226.55° 226.87° Asphalt 0 ft / 0 m 325 ft / 99 m

WIDD

Details ICAO WIDD (BTH)
Name Batam Hang Nadim
Region Indonesia
Timezone Asia/Jakarta (UTC+7.0)
Stats Elevation 126 ft / 38 m (AMSL)
Location 1.121028° 104.118754°
Runways 1
Magnetic Variation 0.248° E

METAR

WIDD 181100Z 02011KT 9999 FEW014 28/21 Q1012

Decode

TAF

TAF WIDD 180500Z 1806/1906 03014KT 9000 SCT014 PROB30 TEMPO 1806/1810 6000 -TSRA FEW014CB

Decode

Destination Runways

ID Width Length Bearing (true) Bearing (mag) Surface Threshold Offset Overrun Length
04 148 ft / 45 m 13,295 ft / 4,052 m 41.80° 41.55° Asphalt 0 ft / 0 m 200 ft / 61 m
22 148 ft / 45 m 13,295 ft / 4,052 m 221.80° 221.55° Asphalt 0 ft / 0 m 200 ft / 61 m

Approach Navaids

Runway Type Ident Frequency Range Bearing (true) Bearing (mag) Slope Elevation
04 Localiser IBTM 110.10 MHz 18 nm / 33 km 41.79° 41.54° - 69 ft / 21 m (AMSL)
04 Glidescope IBTM 110.10 MHz 10 nm / 19 km 41.80° 41.55° 3.00° 125 ft / 38 m (AMSL)
04 DME IBTM 110.10 MHz 18 nm / 33 km - - - 69 ft / 21 m (AMSL)

Popular Alternatives